createdAt,value
2022-12-12T00:01:20.942Z,0.23
2022-12-12T00:03:52.432Z,0.18
2022-12-12T00:06:21.543Z,0.16
2022-12-12T00:08:49.608Z,0.06
2022-12-12T00:11:17.969Z,-0.04
2022-12-12T00:13:45.754Z,-0.13
2022-12-12T00:16:13.658Z,-0.22
2022-12-12T00:18:42.936Z,-0.18
2022-12-12T00:21:18.410Z,-0.22
2022-12-12T00:23:47.069Z,-0.20
2022-12-12T00:26:30.935Z,-0.18
2022-12-12T00:29:00.298Z,-0.19
2022-12-12T00:31:29.284Z,-0.21
2022-12-12T00:33:57.248Z,-0.22
2022-12-12T00:36:28.585Z,-0.18
2022-12-12T00:38:57.745Z,-0.20
2022-12-12T00:41:26.201Z,-0.17
2022-12-12T00:43:54.210Z,-0.15
2022-12-12T00:46:24.803Z,-0.14
2022-12-12T00:48:58.869Z,-0.04
2022-12-12T00:51:29.409Z,0.08
2022-12-12T00:53:58.795Z,0.01
2022-12-12T00:56:28.957Z,0.07
2022-12-12T00:58:56.795Z,0.22
2022-12-12T01:01:27.841Z,0.21
2022-12-12T01:03:56.145Z,0.26
2022-12-12T01:06:24.494Z,0.27
2022-12-12T01:08:52.992Z,0.26
2022-12-12T01:11:21.107Z,0.26
2022-12-12T01:13:52.294Z,0.34
2022-12-12T01:16:21.929Z,0.34
2022-12-12T01:18:50.502Z,0.27
2022-12-12T01:21:20.246Z,0.39
2022-12-12T01:23:48.572Z,0.34
2022-12-12T01:26:20.176Z,0.47
2022-12-12T01:28:48.368Z,0.38
2022-12-12T01:31:16.876Z,0.36
2022-12-12T01:33:46.213Z,0.39
2022-12-12T01:36:16.657Z,0.41
2022-12-12T01:38:48.873Z,0.47
2022-12-12T01:41:17.841Z,0.50
2022-12-12T01:43:46.685Z,0.48
2022-12-12T01:46:33.395Z,0.64
2022-12-12T01:49:04.737Z,0.70
2022-12-12T01:51:33.937Z,0.67
2022-12-12T01:54:07.212Z,0.66
2022-12-12T01:56:36.318Z,0.68
2022-12-12T01:59:08.598Z,0.74
2022-12-12T02:01:37.965Z,1.01
2022-12-12T02:04:07.942Z,1.07
2022-12-12T02:06:35.716Z,1.23
2022-12-12T02:09:07.984Z,1.17
2022-12-12T02:11:42.581Z,1.21
2022-12-12T02:14:11.120Z,1.27
2022-12-12T02:17:09.974Z,1.28
2022-12-12T02:19:52.902Z,1.25
2022-12-12T02:22:39.477Z,1.25
2022-12-12T02:25:37.330Z,1.29
2022-12-12T02:28:38.735Z,1.34
2022-12-12T02:31:45.070Z,1.12
2022-12-12T02:34:32.266Z,1.03
2022-12-12T02:37:20.738Z,1.08
2022-12-12T02:39:54.535Z,1.14
2022-12-12T02:42:44.553Z,1.24
2022-12-12T02:45:34.795Z,1.22
2022-12-12T02:48:12.859Z,1.20
2022-12-12T02:50:43.771Z,1.36
2022-12-12T02:53:11.709Z,1.48
2022-12-12T02:55:39.559Z,1.35
2022-12-12T02:58:07.349Z,1.20
2022-12-12T03:00:55.275Z,1.26
2022-12-12T03:03:53.803Z,1.46
2022-12-12T03:06:55.849Z,1.39
2022-12-12T03:09:41.568Z,1.40
2022-12-12T03:13:02.043Z,1.13
2022-12-12T03:15:54.817Z,1.45
2022-12-12T03:18:27.872Z,1.48
2022-12-12T03:21:29.979Z,1.60
2022-12-12T03:24:03.384Z,1.57
2022-12-12T03:26:42.956Z,1.33
2022-12-12T03:29:25.660Z,1.29
2022-12-12T03:32:03.937Z,1.30
2022-12-12T03:34:38.248Z,1.23
2022-12-12T03:37:26.583Z,1.36
2022-12-12T03:40:08.110Z,1.22
2022-12-12T03:42:50.014Z,1.19
2022-12-12T03:45:25.837Z,1.54
2022-12-12T03:48:03.068Z,1.57
2022-12-12T03:50:36.543Z,1.57
2022-12-12T03:53:11.676Z,1.66
2022-12-12T03:55:47.271Z,1.66
2022-12-12T03:59:00.817Z,1.47
2022-12-12T04:01:42.561Z,1.31
2022-12-12T04:04:41.051Z,1.26
2022-12-12T04:07:33.252Z,1.23
2022-12-12T04:10:19.714Z,1.20
2022-12-12T04:13:13.723Z,1.20
2022-12-12T04:15:59.997Z,1.26
2022-12-12T04:18:55.552Z,1.33
2022-12-12T04:22:02.042Z,1.39
2022-12-12T04:24:46.573Z,1.32
2022-12-12T04:27:22.239Z,1.32
2022-12-12T04:30:03.906Z,1.34
2022-12-12T04:32:40.886Z,1.52
2022-12-12T04:35:14.907Z,1.46
2022-12-12T04:37:48.085Z,1.52
2022-12-12T04:40:21.857Z,1.50
2022-12-12T04:42:58.225Z,1.53
2022-12-12T04:45:35.764Z,1.50
2022-12-12T04:48:08.597Z,1.54
2022-12-12T04:50:38.587Z,1.62
2022-12-12T04:53:16.584Z,1.59
2022-12-12T04:55:55.200Z,1.59
2022-12-12T04:58:23.725Z,1.51
2022-12-12T05:01:53.388Z,1.55
2022-12-12T05:04:30.026Z,1.47
2022-12-12T05:07:07.318Z,1.52
2022-12-12T05:09:36.041Z,1.55
2022-12-12T05:12:03.927Z,1.58
2022-12-12T05:14:32.056Z,1.59
2022-12-12T05:17:06.521Z,1.50
2022-12-12T05:19:34.578Z,1.50
2022-12-12T05:22:03.189Z,1.50
2022-12-12T05:24:32.018Z,1.55
2022-12-12T05:27:01.385Z,1.54
2022-12-12T05:29:29.429Z,1.57
2022-12-12T05:31:57.451Z,1.63
2022-12-12T05:34:25.849Z,1.63
2022-12-12T05:36:53.873Z,1.78
2022-12-12T05:39:22.971Z,1.70
2022-12-12T05:41:53.721Z,1.79
2022-12-12T05:44:22.372Z,1.81
2022-12-12T05:46:50.357Z,1.62
2022-12-12T05:49:19.056Z,1.67
2022-12-12T05:51:46.868Z,1.63
2022-12-12T05:54:14.879Z,1.66
2022-12-12T05:56:42.809Z,1.59
2022-12-12T05:59:10.916Z,1.63
2022-12-12T06:01:38.815Z,1.66
2022-12-12T06:04:08.122Z,1.68
2022-12-12T06:06:36.422Z,1.70
2022-12-12T06:09:04.392Z,1.69
2022-12-12T06:11:32.487Z,1.63
2022-12-12T06:14:00.337Z,1.69
2022-12-12T06:16:31.808Z,1.69
2022-12-12T06:18:59.978Z,1.62
2022-12-12T06:21:30.317Z,1.59
2022-12-12T06:23:58.501Z,1.65
2022-12-12T06:26:26.824Z,1.68
2022-12-12T06:28:55.962Z,1.64
2022-12-12T06:31:24.059Z,1.66
2022-12-12T06:33:52.274Z,1.63
2022-12-12T06:36:24.637Z,1.55
2022-12-12T06:38:58.392Z,1.62
2022-12-12T06:41:30.142Z,1.66
2022-12-12T06:43:58.136Z,1.57
2022-12-12T06:46:28.277Z,1.59
2022-12-12T06:48:57.068Z,1.59
2022-12-12T06:51:29.074Z,1.56
2022-12-12T06:53:57.017Z,1.57
2022-12-12T06:56:26.659Z,1.56
2022-12-12T06:58:55.191Z,1.57
2022-12-12T07:01:23.899Z,1.58
2022-12-12T07:03:52.930Z,1.73
2022-12-12T07:06:23.592Z,1.70
2022-12-12T07:08:52.424Z,1.66
2022-12-12T07:11:23.116Z,1.59
2022-12-12T07:13:54.396Z,1.72
2022-12-12T07:16:22.968Z,1.79
2022-12-12T07:18:50.820Z,1.76
2022-12-12T07:21:20.191Z,1.75
2022-12-12T07:23:48.678Z,1.76
2022-12-12T07:26:19.360Z,1.76
2022-12-12T07:28:48.029Z,1.80
2022-12-12T07:31:18.720Z,1.93
2022-12-12T07:33:46.997Z,1.79
2022-12-12T07:36:16.107Z,1.84
2022-12-12T07:38:45.092Z,1.83
2022-12-12T07:41:15.399Z,1.85
2022-12-12T07:43:45.949Z,1.90
2022-12-12T07:46:18.451Z,1.92
2022-12-12T07:48:47.226Z,1.98
2022-12-12T07:51:18.560Z,2.08
2022-12-12T07:53:46.919Z,2.22
2022-12-12T07:56:16.654Z,2.11
2022-12-12T07:58:45.747Z,2.02
2022-12-12T08:01:24.245Z,2.26
2022-12-12T08:03:54.397Z,2.22
2022-12-12T08:06:24.278Z,2.17
2022-12-12T08:08:53.254Z,2.25
2022-12-12T08:11:23.931Z,2.30
2022-12-12T08:13:53.384Z,2.23
2022-12-12T08:16:24.484Z,2.30
2022-12-12T08:18:57.426Z,2.31
2022-12-12T08:21:26.848Z,2.42
2022-12-12T08:23:57.145Z,2.30
2022-12-12T08:26:26.194Z,2.32
2022-12-12T08:28:55.281Z,2.42
2022-12-12T08:31:24.008Z,2.55
2022-12-12T08:33:52.196Z,2.48
2022-12-12T08:36:25.735Z,2.45
2022-12-12T08:38:53.691Z,2.59
2022-12-12T08:41:22.225Z,2.48
2022-12-12T08:43:50.774Z,2.39
2022-12-12T08:46:20.071Z,2.59
2022-12-12T08:48:48.563Z,2.69
2022-12-12T08:51:17.274Z,2.48
2022-12-12T08:53:47.334Z,2.59
2022-12-12T08:56:16.895Z,2.66
2022-12-12T08:58:44.920Z,2.67
2022-12-12T09:01:15.146Z,2.75
2022-12-12T09:03:43.439Z,2.76
2022-12-12T09:06:12.096Z,2.85
2022-12-12T09:08:41.237Z,2.92
2022-12-12T09:11:09.576Z,2.94
2022-12-12T09:13:38.587Z,2.95
2022-12-12T09:16:09.043Z,2.99
2022-12-12T09:18:41.992Z,3.08
2022-12-12T09:21:14.340Z,2.96
2022-12-12T09:23:42.396Z,2.99
2022-12-12T09:26:11.053Z,2.92
2022-12-12T09:28:40.259Z,2.93
2022-12-12T09:31:10.287Z,3.00
2022-12-12T09:33:41.801Z,3.17
2022-12-12T09:36:13.973Z,3.05
2022-12-12T09:38:42.388Z,3.14
2022-12-12T09:41:10.642Z,3.26
2022-12-12T09:43:45.401Z,3.29
2022-12-12T09:46:28.659Z,3.40
2022-12-12T09:49:03.678Z,3.41
2022-12-12T09:51:31.792Z,3.26
2022-12-12T09:54:00.664Z,3.43
2022-12-12T09:56:48.449Z,3.52
2022-12-12T09:59:24.129Z,3.55
2022-12-12T10:02:01.838Z,3.58
2022-12-12T10:04:40.405Z,3.32
2022-12-12T10:07:26.402Z,3.39
2022-12-12T10:10:08.606Z,3.38
2022-12-12T10:12:38.152Z,3.61
2022-12-12T10:15:13.322Z,3.57
2022-12-12T10:17:48.489Z,3.37
2022-12-12T10:20:29.668Z,3.34
2022-12-12T10:23:07.574Z,3.41
2022-12-12T10:25:57.613Z,3.47
2022-12-12T10:28:27.879Z,3.50
2022-12-12T10:31:26.019Z,3.48
2022-12-12T10:34:24.875Z,3.44
2022-12-12T10:37:11.478Z,3.43
2022-12-12T10:40:04.082Z,3.42
2022-12-12T10:42:49.303Z,3.57
2022-12-12T10:45:30.628Z,3.67
2022-12-12T10:47:58.920Z,3.38
2022-12-12T10:50:41.955Z,3.65
2022-12-12T10:53:12.591Z,3.63
2022-12-12T10:55:53.742Z,3.51
2022-12-12T10:58:27.319Z,3.51
2022-12-12T11:01:04.746Z,3.29
2022-12-12T11:03:36.295Z,3.30
2022-12-12T11:06:10.598Z,3.45
2022-12-12T11:08:39.288Z,3.62
2022-12-12T11:11:10.442Z,3.53
2022-12-12T11:13:45.403Z,3.36
2022-12-12T11:16:17.931Z,3.35
2022-12-12T11:19:02.096Z,3.37
2022-12-12T11:21:33.831Z,3.45
2022-12-12T11:24:08.161Z,3.26
2022-12-12T11:26:45.155Z,3.26
2022-12-12T11:29:26.719Z,3.31
2022-12-12T11:31:55.775Z,3.20
2022-12-12T11:34:27.093Z,3.39
2022-12-12T11:36:56.184Z,3.49
2022-12-12T11:39:28.477Z,3.25
2022-12-12T11:42:03.319Z,3.34
2022-12-12T11:44:37.299Z,3.27
2022-12-12T11:47:38.832Z,3.39
2022-12-12T11:50:26.109Z,3.46
2022-12-12T11:53:01.855Z,3.41
2022-12-12T11:55:39.851Z,3.27
2022-12-12T11:58:15.604Z,3.33
2022-12-12T12:01:07.604Z,3.48
2022-12-12T12:03:48.105Z,3.40
2022-12-12T12:06:35.099Z,3.34
2022-12-12T12:09:22.833Z,3.39
2022-12-12T12:12:01.376Z,3.40
2022-12-12T12:15:06.957Z,3.54
2022-12-12T12:18:04.178Z,3.47
2022-12-12T12:21:00.953Z,3.43
2022-12-12T12:23:43.325Z,3.47
2022-12-12T12:26:29.984Z,3.61
2022-12-12T12:29:12.300Z,3.52
2022-12-12T12:31:52.360Z,3.69
2022-12-12T12:34:52.607Z,3.74
2022-12-12T12:37:32.633Z,3.53
2022-12-12T12:40:19.894Z,3.75
2022-12-12T12:43:04.587Z,3.68
2022-12-12T12:45:32.514Z,3.68
2022-12-12T12:48:19.791Z,3.59
2022-12-12T12:51:05.200Z,3.56
2022-12-12T12:54:00.031Z,3.54
2022-12-12T12:56:43.867Z,3.52
2022-12-12T12:59:27.913Z,3.43
2022-12-12T13:02:41.532Z,3.53
2022-12-12T13:05:27.455Z,3.52
2022-12-12T13:08:05.789Z,3.51
2022-12-12T13:10:38.459Z,3.57
2022-12-12T13:13:23.840Z,3.61
2022-12-12T13:15:57.049Z,3.49
2022-12-12T13:18:33.342Z,3.58
2022-12-12T13:21:32.512Z,3.47
2022-12-12T13:24:28.372Z,3.40
2022-12-12T13:27:21.204Z,3.37
2022-12-12T13:30:20.012Z,3.16
2022-12-12T13:33:03.105Z,3.32
2022-12-12T13:35:35.841Z,3.39
2022-12-12T13:38:05.323Z,3.27
2022-12-12T13:40:42.505Z,3.23
2022-12-12T13:43:41.619Z,3.15
2022-12-12T13:46:21.636Z,3.19
2022-12-12T13:49:19.116Z,3.03
2022-12-12T13:51:47.462Z,3.00
2022-12-12T13:54:15.787Z,2.95
2022-12-12T13:56:47.629Z,2.96
2022-12-12T13:59:27.758Z,3.03
2022-12-12T14:01:57.963Z,2.96
2022-12-12T14:04:33.940Z,2.81
2022-12-12T14:07:12.687Z,2.87
2022-12-12T14:09:48.764Z,2.98
2022-12-12T14:12:29.236Z,2.81
2022-12-12T14:15:05.653Z,2.78
2022-12-12T14:17:42.144Z,2.70
2022-12-12T14:20:30.635Z,2.87
2022-12-12T14:23:23.757Z,2.65
2022-12-12T14:25:52.602Z,2.45
2022-12-12T14:28:28.253Z,2.39
2022-12-12T14:31:09.429Z,2.46
2022-12-12T14:33:55.594Z,2.40
2022-12-12T14:36:42.876Z,2.33
2022-12-12T14:39:28.833Z,2.48
2022-12-12T14:41:58.036Z,2.44
2022-12-12T14:44:37.164Z,2.62
2022-12-12T14:47:08.065Z,2.60
2022-12-12T14:49:36.691Z,2.66
2022-12-12T14:52:05.201Z,2.72
2022-12-12T14:54:33.162Z,2.62
2022-12-12T14:57:04.294Z,2.76
2022-12-12T14:59:36.713Z,2.73
2022-12-12T15:02:30.715Z,2.69
2022-12-12T15:05:05.610Z,2.69
2022-12-12T15:07:41.622Z,2.73
2022-12-12T15:10:25.767Z,2.71
2022-12-12T15:12:56.717Z,2.54
2022-12-12T15:18:18.857Z,2.77
2022-12-12T15:20:47.197Z,2.66
2022-12-12T15:23:20.531Z,2.66
2022-12-12T15:25:56.403Z,2.59
2022-12-12T15:28:25.789Z,2.57
2022-12-12T15:30:57.775Z,2.60
2022-12-12T15:33:29.230Z,2.70
2022-12-12T15:36:05.486Z,2.61
2022-12-12T15:38:34.588Z,2.39
2022-12-12T15:41:09.516Z,2.45
2022-12-12T15:43:43.257Z,2.35
2022-12-12T15:46:15.969Z,2.38
2022-12-12T15:48:52.576Z,2.56
2022-12-12T15:51:25.355Z,2.59
2022-12-12T15:53:57.611Z,2.70
2022-12-12T15:56:29.403Z,2.61
2022-12-12T15:59:16.779Z,2.53
2022-12-12T16:01:45.380Z,2.56
2022-12-12T16:04:13.373Z,2.46
2022-12-12T16:06:46.065Z,2.49
2022-12-12T16:09:22.606Z,2.32
2022-12-12T16:11:58.819Z,2.36
2022-12-12T16:14:27.580Z,2.37
2022-12-12T16:17:15.786Z,2.38
2022-12-12T16:20:07.484Z,2.23
2022-12-12T16:22:46.566Z,2.22
2022-12-12T16:25:25.746Z,2.10
2022-12-12T16:28:25.331Z,2.18
2022-12-12T16:31:00.972Z,2.14
2022-12-12T16:33:38.024Z,2.12
2022-12-12T16:36:09.812Z,2.21
2022-12-12T16:38:40.251Z,2.10
2022-12-12T16:41:14.074Z,2.07
2022-12-12T16:43:42.355Z,2.20
2022-12-12T16:46:22.090Z,2.12
2022-12-12T16:48:52.124Z,2.09
2022-12-12T16:51:33.367Z,2.03
2022-12-12T16:54:02.868Z,1.90
2022-12-12T16:56:31.956Z,1.77
2022-12-12T16:59:00.545Z,1.83
2022-12-12T17:01:30.631Z,1.87
2022-12-12T17:04:01.758Z,1.87
2022-12-12T17:06:29.919Z,1.85
2022-12-12T17:08:58.053Z,1.89
2022-12-12T17:11:27.000Z,1.82
2022-12-12T17:13:56.391Z,1.76
2022-12-12T17:16:28.321Z,1.65
2022-12-12T17:18:56.655Z,1.42
2022-12-12T17:21:28.834Z,1.53
2022-12-12T17:23:59.327Z,1.48
2022-12-12T17:26:28.804Z,1.45
2022-12-12T17:28:58.905Z,1.49
2022-12-12T17:31:29.208Z,1.36
2022-12-12T17:33:59.365Z,1.37
2022-12-12T17:36:31.729Z,1.53
2022-12-12T17:39:02.616Z,1.45
2022-12-12T17:41:30.807Z,1.51
2022-12-12T17:44:00.795Z,1.45
2022-12-12T17:46:32.939Z,1.41
2022-12-12T17:49:02.170Z,1.31
2022-12-12T17:51:32.243Z,1.41
2022-12-12T17:54:01.071Z,1.41
2022-12-12T17:56:29.677Z,1.47
2022-12-12T17:59:00.021Z,1.45
2022-12-12T18:01:32.022Z,1.43
2022-12-12T18:04:02.909Z,1.53
2022-12-12T18:06:33.936Z,1.47
2022-12-12T18:09:04.147Z,1.42
2022-12-12T18:11:35.715Z,1.42
2022-12-12T18:14:06.642Z,1.31
2022-12-12T18:16:36.328Z,1.41
2022-12-12T18:19:05.160Z,1.35
2022-12-12T18:24:29.497Z,1.42
2022-12-12T18:27:00.528Z,1.40
2022-12-12T18:29:28.841Z,1.38
2022-12-12T18:31:57.651Z,1.42
2022-12-12T18:34:32.429Z,1.43
2022-12-12T19:02:24.910Z,1.28
2022-12-12T19:04:53.503Z,1.30
2022-12-12T19:07:21.075Z,1.34
2022-12-12T19:09:47.837Z,1.18
2022-12-12T19:12:14.791Z,1.29
2022-12-12T19:15:07.925Z,1.44
2022-12-12T19:17:44.689Z,1.28
2022-12-12T19:20:17.386Z,1.35
2022-12-12T19:22:46.889Z,1.33
2022-12-12T19:25:17.314Z,1.25
2022-12-12T19:27:49.353Z,1.27
2022-12-12T19:30:57.064Z,1.39
2022-12-12T19:33:27.184Z,1.27
2022-12-12T19:35:57.664Z,1.14
2022-12-12T19:38:40.035Z,1.23
2022-12-12T19:41:08.631Z,1.28
2022-12-12T19:43:36.056Z,1.18
2022-12-12T19:46:18.696Z,1.16
2022-12-12T19:48:48.828Z,1.18
2022-12-12T19:51:22.607Z,1.31
2022-12-12T19:53:56.889Z,1.36
2022-12-12T19:56:30.718Z,1.27
2022-12-12T19:59:02.380Z,1.21
2022-12-12T20:01:32.712Z,1.28
2022-12-12T20:04:05.917Z,1.40
2022-12-12T20:06:44.583Z,1.14
2022-12-12T20:09:15.264Z,1.11
2022-12-12T20:11:44.956Z,1.18
2022-12-12T20:14:14.884Z,1.14
2022-12-12T20:16:42.948Z,1.12
2022-12-12T20:19:10.846Z,1.07
2022-12-12T20:24:54.060Z,1.13
2022-12-12T20:27:24.596Z,1.06
2022-12-12T20:29:52.703Z,1.04
2022-12-12T20:32:23.484Z,0.99
2022-12-12T20:34:53.116Z,0.96
2022-12-12T20:37:21.044Z,1.05
2022-12-12T20:39:48.227Z,1.03
2022-12-12T20:42:17.783Z,0.98
2022-12-12T20:44:47.337Z,1.04
2022-12-12T20:47:16.869Z,0.97
2022-12-12T20:49:44.748Z,0.96
2022-12-12T20:52:13.386Z,0.97
2022-12-12T20:54:40.981Z,1.10
2022-12-12T20:57:08.012Z,1.05
2022-12-12T20:59:35.243Z,0.93
2022-12-12T21:02:02.181Z,0.84
2022-12-12T21:04:31.392Z,0.91
2022-12-12T21:07:01.550Z,0.99
2022-12-12T21:09:28.569Z,0.98
2022-12-12T21:11:57.163Z,0.91
2022-12-12T21:14:29.984Z,0.87
2022-12-12T21:16:56.933Z,0.84
2022-12-12T21:19:23.868Z,0.84
2022-12-12T21:21:51.530Z,0.78
2022-12-12T21:24:19.481Z,0.79
2022-12-12T21:26:47.294Z,0.78
2022-12-12T21:29:14.963Z,0.78
2022-12-12T21:31:49.956Z,0.73
2022-12-12T21:34:18.392Z,0.69
2022-12-12T21:36:45.328Z,0.66
2022-12-12T21:39:12.414Z,0.69
2022-12-12T21:41:41.343Z,0.70
2022-12-12T21:44:09.109Z,0.76
2022-12-12T21:46:35.979Z,0.74
2022-12-12T21:49:21.339Z,0.75
2022-12-12T21:51:48.019Z,0.72
2022-12-12T21:54:14.864Z,0.75
2022-12-12T21:56:41.774Z,0.71
2022-12-12T21:59:10.391Z,0.67
2022-12-12T22:01:36.912Z,0.78
2022-12-12T22:04:04.028Z,0.88
2022-12-12T22:06:33.380Z,0.89
2022-12-12T22:09:03.468Z,0.84
2022-12-12T22:11:41.567Z,0.79
2022-12-12T22:14:18.635Z,0.72
2022-12-12T22:16:45.595Z,0.73
2022-12-12T22:19:14.340Z,0.73
2022-12-12T22:21:43.133Z,0.79
2022-12-12T22:24:10.365Z,0.74
2022-12-12T22:26:40.378Z,0.82
2022-12-12T22:29:10.549Z,0.81
2022-12-12T22:31:38.929Z,0.73
2022-12-12T22:34:16.463Z,0.71
2022-12-12T22:36:43.830Z,0.65
2022-12-12T22:39:27.116Z,0.68
2022-12-12T22:41:54.778Z,0.69
2022-12-12T22:44:22.941Z,0.85
2022-12-12T22:46:51.367Z,0.74
2022-12-12T22:49:21.697Z,0.76
2022-12-12T22:51:48.749Z,0.80
2022-12-12T22:54:15.707Z,0.62
2022-12-12T22:56:42.380Z,0.74
2022-12-12T22:59:12.078Z,0.71
2022-12-12T23:01:39.756Z,0.66
2022-12-12T23:04:07.012Z,0.65
2022-12-12T23:06:35.425Z,0.66
2022-12-12T23:09:08.016Z,0.56
2022-12-12T23:11:36.078Z,0.52
2022-12-12T23:14:07.845Z,0.63
2022-12-12T23:16:34.889Z,0.53
2022-12-12T23:19:06.595Z,0.55
2022-12-12T23:21:35.611Z,0.71
2022-12-12T23:24:03.426Z,0.81
2022-12-12T23:26:31.111Z,0.80
2022-12-12T23:28:58.589Z,0.56
2022-12-12T23:31:27.977Z,0.52
2022-12-12T23:33:56.922Z,0.56
2022-12-12T23:36:24.279Z,0.41
2022-12-12T23:39:03.234Z,0.45
2022-12-12T23:41:29.771Z,0.56
2022-12-12T23:43:56.473Z,0.61
2022-12-12T23:46:28.851Z,0.58
2022-12-12T23:49:05.678Z,0.47
2022-12-12T23:51:35.689Z,0.26
2022-12-12T23:54:04.880Z,0.23
2022-12-12T23:56:31.915Z,0.12
2022-12-12T23:58:59.335Z,0.00
